Thunder radar more information blitzortung!


Radar de pluja more information rain snow radar


Visita la nostra xarxa de llocs de meteo:

Template documentation
and downloads

And another site



No particular awareness of the weather is required.    There are no Weather-warnings

Pagina Historial Weather Underground text

Diari Resum Desembre 21, 2017 Unitats:  Mètric    Imperial   Tant
« Previous Dia
SegĂźent Dia »
Diari Setmana Mensual Anual Personalitzada
  Maxima: Minima: Media:
Temperatura: -17.8 °C -16.1 °C -12.9 °C
Punt de rosada: -17.8 °C -18.7 °C -17.3 °C
Humitat: Humidity % 52 % 58 %
Wind Speed: 0 km/h 0 km/h 4.2 km/h
RĂ fegues de vent: 0 km/h - -
Vent:- - SSE
Pression baro: 0 hPa 34899.5 hPa -
Precipitacions: 0 mm    
Historical Graphs
 
 
Dades de taula per Desembre 21, 2017
Temps Temperatura Punt de rosada Pression baro Vent Wind Speed RĂ fegues de vent Humitat Rainfall Rate (Hourly)
-17.8 °C -17.8 °C 0 hPa Calm     Humidity % 0 mm
00:00 -14.3 °C -17.8 °C 34967.2 hPa Calm     64 % 0 mm
00:05 -14.3 °C -17.8 °C 34967.2 hPa Calm     64 % 0 mm
00:07 -14.3 °C -17.8 °C 34967.2 hPa Calm     64 % 0 mm
00:15 -15.1 °C -18.1 °C 35001.1 hPa Calm     68 % 0 mm
00:25 -15.2 °C -18.2 °C 35001.1 hPa Calm   2.6 km/h 68 % 0 mm
00:35 -15.2 °C -18.2 °C 34967.2 hPa Calm   2.6 km/h 68 % 0 mm
00:45 -15.2 °C -18.2 °C 34967.2 hPa Calm   2.6 km/h 68 % 0 mm
00:55 -15.2 °C -18.2 °C 35001.1 hPa NW 2.6 km/h 5.1 km/h 68 % 0 mm
01:05 -15.3 °C -18.3 °C 35001.1 hPa West 2.6 km/h 5.1 km/h 68 % 0 mm
01:15 -15.4 °C -18.4 °C 35001.1 hPa WSW 2.6 km/h 5.1 km/h 68 % 0 mm
01:25 -15.4 °C -18.3 °C 35001.1 hPa Calm   2.6 km/h 69 % 0 mm
01:35 -15.6 °C -18.4 °C 35001.1 hPa Calm     69 % 0 mm
01:45 -15.6 °C -18.5 °C 35001.1 hPa Calm   2.6 km/h 69 % 0 mm
01:55 -15.6 °C -18.5 °C 35001.1 hPa WNW 2.6 km/h 5.1 km/h 69 % 0 mm
02:05 -15.7 °C -18.4 °C 35038.3 hPa Calm   5.1 km/h 70 % 0 mm
02:15 -15.7 °C -18.5 °C 35038.3 hPa Calm     70 % 0 mm
02:25 -15.8 °C -18.6 °C 35038.3 hPa NNW 2.6 km/h 2.6 km/h 70 % 0 mm
02:35 -16 °C -18.7 °C 35038.3 hPa West 5.1 km/h 5.1 km/h 70 % 0 mm
02:45 -16 °C -18.7 °C 35038.3 hPa Calm   2.6 km/h 70 % 0 mm
02:55 -16 °C -18.7 °C 35038.3 hPa Calm     71 % 0 mm
03:05 -16.1 °C -18.7 °C 35072.2 hPa SW 2.6 km/h 5.1 km/h 71 % 0 mm
03:15 -16 °C -18.7 °C 35072.2 hPa SW 2.6 km/h 7.7 km/h 71 % 0 mm
03:25 -15.7 °C -18.3 °C 35072.2 hPa WSW 2.6 km/h 5.1 km/h 72 % 0 mm
03:35 -15.4 °C -18.1 °C 35072.2 hPa WSW 2.6 km/h 5.1 km/h 71 % 0 mm
03:45 -15 °C -17.7 °C 35072.2 hPa WSW 5.1 km/h 5.1 km/h 71 % 0 mm
03:55 -14.4 °C -17.3 °C 35072.2 hPa SW 2.6 km/h 5.1 km/h 70 % 0 mm
04:05 -14.3 °C -17.3 °C 35106 hPa Calm   5.1 km/h 68 % 0 mm
04:15 -14.1 °C -17.3 °C 35106 hPa East 5.1 km/h 5.1 km/h 67 % 0 mm
04:25 -14.2 °C -17.4 °C 35072.2 hPa ENE 5.1 km/h 7.7 km/h 66 % 0 mm
04:35 -14.1 °C -17.4 °C 35072.2 hPa ENE 5.1 km/h 7.7 km/h 65 % 0 mm
04:45 -13.8 °C -17.2 °C 35072.2 hPa NNE 2.6 km/h 7.7 km/h 65 % 0 mm
10:49 -13.6 °C -17.1 °C 35072.2 hPa NE 3.1 km/h 3.1 km/h 65 % 0 mm
10:50 -13.6 °C -17.1 °C 35072.2 hPa NNE 5.1 km/h 5.1 km/h 65 % 0 mm
10:52 -13.5 °C -17.1 °C 35072.2 hPa NNW 6 km/h 6 km/h 64 % 0 mm
10:56 -13.3 °C -16.9 °C 35072.2 hPa WNW 5.1 km/h   64 % 0 mm
11:01 -13.2 °C -16.8 °C 35072.2 hPa East 6.3 km/h 6.3 km/h 63 % 0 mm
11:02 -13.2 °C -17 °C 35072.2 hPa NNE 6 km/h 6 km/h 62 % 0 mm
11:06 -13.1 °C -16.9 °C 35072.2 hPa ENE 6 km/h 6 km/h 62 % 0 mm
11:07 -13.1 °C -16.9 °C 35072.2 hPa NW 6 km/h 6 km/h 62 % 0 mm
11:11 -12.9 °C -16.8 °C 35072.2 hPa NNE 6 km/h 6 km/h 62 % 0 mm
11:12 -12.9 °C -16.8 °C 35072.2 hPa NNE 6.8 km/h 6.8 km/h 62 % 0 mm
11:16 -13 °C -16.8 °C 35072.2 hPa NE 6 km/h 6 km/h 62 % 0 mm
11:18 -12.9 °C -16.8 °C 35072.2 hPa NNE 6 km/h 6 km/h 62 % 0 mm
11:23 -12.9 °C -16.9 °C 35072.2 hPa NNE 6 km/h 6 km/h 61 % 0 mm
11:28 -13 °C -16.9 °C 35072.2 hPa North 11.9 km/h 11.9 km/h 61 % 0 mm
11:33 -12.8 °C -16.8 °C 35072.2 hPa NE 8 km/h 8 km/h 61 % 0 mm
11:34 -12.8 °C -16.8 °C 35072.2 hPa ENE 12.2 km/h 12.2 km/h 61 % 0 mm
11:37 -12.9 °C -17.1 °C 35072.2 hPa East 11.9 km/h 11.9 km/h 60 % 0 mm
11:41 -12.9 °C -17.1 °C 35072.2 hPa NE 9.8 km/h 9.8 km/h 60 % 0 mm
11:44 -12.9 °C -17 °C 35072.2 hPa NNE 12.7 km/h 12.7 km/h 60 % 0 mm
11:46 -13 °C -17.2 °C 35072.2 hPa ENE 15 km/h 15 km/h 59 % 0 mm
11:49 -12.9 °C -17 °C 35072.2 hPa East 9 km/h 9 km/h 60 % 0 mm
11:52 -12.8 °C -16.8 °C 35072.2 hPa NNE 6.8 km/h 6.8 km/h 60 % 0 mm
11:57 -12.7 °C -16.9 °C 35072.2 hPa NE 9 km/h 9 km/h 59 % 0 mm
12:02 -12.7 °C -16.9 °C 35072.2 hPa NE 9 km/h 9 km/h 59 % 0 mm
12:07 -12.6 °C -16.8 °C 35072.2 hPa ENE 9 km/h 9 km/h 59 % 0 mm
12:08 -12.5 °C -16.7 °C 35072.2 hPa SE 9 km/h 9 km/h 59 % 0 mm
12:13 -12.3 °C -16.6 °C 35072.2 hPa WNW 9 km/h 9 km/h 59 % 0 mm
12:18 -12.3 °C -16.7 °C 35072.2 hPa ENE 11.9 km/h 11.9 km/h 58 % 0 mm
12:20 -12.4 °C -16.8 °C 35072.2 hPa ENE 9 km/h 9 km/h 58 % 0 mm
12:25 -12.2 °C -16.6 °C 35072.2 hPa NE 6.3 km/h 6.3 km/h 58 % 0 mm
12:29 -12.2 °C -16.7 °C 35072.2 hPa NE 9 km/h 9 km/h 57 % 0 mm
12:30 -12.2 °C -16.7 °C 35072.2 hPa East 9 km/h 9 km/h 57 % 0 mm
12:35 -12.2 °C -16.8 °C 35072.2 hPa NNE 9 km/h 9 km/h 56 % 0 mm
12:39 -12.2 °C -16.9 °C 35072.2 hPa NE 9 km/h 9 km/h 56 % 0 mm
12:44 -11.9 °C -16.5 °C 35072.2 hPa NE 9.8 km/h 9.8 km/h 57 % 0 mm
12:48 -11.9 °C -16.6 °C 35072.2 hPa North 6.8 km/h 6.8 km/h 56 % 0 mm
12:49 -11.8 °C -16.5 °C 35072.2 hPa NE 6 km/h 6 km/h 56 % 0 mm
12:56 -11.8 °C -16.6 °C 35038.3 hPa NNE 9 km/h 9 km/h 55 % 0 mm
13:01 -11.8 °C -16.7 °C 35038.3 hPa NE 9 km/h 9 km/h 55 % 0 mm
13:06 -11.6 °C -16.4 °C 35038.3 hPa ENE 6 km/h 6 km/h 55 % 0 mm
13:07 -11.6 °C -16.4 °C 35038.3 hPa WNW 6 km/h 6 km/h 55 % 0 mm
13:12 -11.5 °C -16.3 °C 35038.3 hPa ENE 8.5 km/h 8.5 km/h 55 % 0 mm
13:17 -11.4 °C -16.3 °C 35038.3 hPa NNE 9.3 km/h 9.3 km/h 55 % 0 mm
13:18 -11.4 °C -16.3 °C 35038.3 hPa ENE 10.3 km/h 10.3 km/h 55 % 0 mm
13:23 -11.4 °C -16.2 °C 35038.3 hPa NE 6 km/h 6 km/h 55 % 0 mm
13:28 -11.3 °C -16.2 °C 35038.3 hPa WNW 3.7 km/h   55 % 0 mm
13:29 -11.2 °C -16.2 °C 35038.3 hPa NE 3.1 km/h 3.1 km/h 54 % 0 mm
13:35 -11.3 °C -16.3 °C 35038.3 hPa ENE 8.5 km/h 8.5 km/h 54 % 0 mm
13:36 -11.3 °C -16.3 °C 35038.3 hPa East 9 km/h 9 km/h 54 % 0 mm
13:41 -11.3 °C -16.3 °C 35038.3 hPa NNE 8.5 km/h 8.5 km/h 54 % 0 mm
13:43 -11.4 °C -16.6 °C 35038.3 hPa NE 9 km/h 9 km/h 53 % 0 mm
13:46 -11.3 °C -16.3 °C 35038.3 hPa NNE 9 km/h 9 km/h 54 % 0 mm
13:51 -11.4 °C -16.6 °C 35038.3 hPa North 3.1 km/h 3.1 km/h 53 % 0 mm
13:56 -11.3 °C -16.3 °C 35038.3 hPa NNW 6 km/h 6 km/h 54 % 0 mm
13:58 -11.3 °C -16.3 °C 35038.3 hPa NNE 6 km/h 6 km/h 54 % 0 mm
14:02 -11.3 °C -16.3 °C 35038.3 hPa ENE 9 km/h 9 km/h 54 % 0 mm
14:07 -11.3 °C -16.3 °C 35038.3 hPa WNW 6 km/h 6 km/h 54 % 0 mm
14:08 -11.3 °C -16.3 °C 35038.3 hPa NNE 6 km/h 6.3 km/h 54 % 0 mm
14:10 -11.3 °C -16.3 °C 35038.3 hPa North 5.1 km/h 12.9 km/h 54 % 0 mm
14:13 -11.3 °C -16.4 °C 35038.3 hPa NNE 9 km/h 9 km/h 53 % 0 mm
14:16 -11.2 °C -16.4 °C 35038.3 hPa ESE 6 km/h 6.3 km/h 53 % 0 mm
14:19 -11.2 °C -16.3 °C 35038.3 hPa NNE 9 km/h 9 km/h 53 % 0 mm
14:24 -11.2 °C -16.3 °C 35001.1 hPa NNW 6 km/h 6 km/h 53 % 0 mm
14:26 -11.2 °C -16.3 °C 35001.1 hPa NNE 6.3 km/h 6.3 km/h 53 % 0 mm
14:28 -11.2 °C -16.3 °C 35001.1 hPa NNW 7.6 km/h 7.6 km/h 53 % 0 mm
14:33 -11.1 °C -16.3 °C 35001.1 hPa NE 9 km/h 9 km/h 53 % 0 mm
14:34 -11.1 °C -16.3 °C 35001.1 hPa NNE 8 km/h 8 km/h 53 % 0 mm
14:37 -11.1 °C -16.3 °C 35001.1 hPa NE 9 km/h 9 km/h 53 % 0 mm
14:40 -11.1 °C -16.3 °C 35001.1 hPa NNE 9 km/h 9 km/h 53 % 0 mm
14:45 -11.1 °C -16.3 °C 35001.1 hPa NE 6.3 km/h 6.3 km/h 53 % 0 mm
14:46 -11.1 °C -16.2 °C 35001.1 hPa NE 6 km/h 6 km/h 53 % 0 mm
14:51 -11.1 °C -16.3 °C 35001.1 hPa NNE 6.3 km/h 6.3 km/h 52 % 0 mm
14:52 -11.1 °C -16.3 °C 35001.1 hPa NNE 6.3 km/h 6.3 km/h 52 % 0 mm
14:57 -11 °C -16.3 °C 35001.1 hPa East 6 km/h 6 km/h 52 % 0 mm
14:58 -11 °C -16.3 °C 35001.1 hPa East 6 km/h 6 km/h 52 % 0 mm
15:03 -10.9 °C -16.3 °C 35001.1 hPa NNE 6 km/h 6 km/h 52 % 0 mm
15:04 -10.9 °C -16.3 °C 35001.1 hPa ENE 6.3 km/h 6.3 km/h 52 % 0 mm
15:09 -10.9 °C -16.2 °C 35001.1 hPa ENE 6 km/h 6 km/h 52 % 0 mm
15:14 -10.9 °C -16.2 °C 35001.1 hPa WNW 6 km/h 6 km/h 52 % 0 mm
15:15 -10.9 °C -16.2 °C 35001.1 hPa North 6 km/h 6 km/h 52 % 0 mm
15:16 -10.9 °C -16.1 °C 35001.1 hPa ENE 6 km/h 6 km/h 53 % 0 mm
15:20 -10.8 °C -16.2 °C 35001.1 hPa NE 7.6 km/h 7.6 km/h 52 % 0 mm
15:25 -10.8 °C -16 °C 35001.1 hPa NW 3.1 km/h 3.1 km/h 53 % 0 mm
15:30 -10.8 °C -16.2 °C 35001.1 hPa NNE 6 km/h 6 km/h 52 % 0 mm
15:32 -10.8 °C -16.2 °C 35001.1 hPa ENE 6 km/h   52 % 0 mm
15:37 -10.8 °C -16.2 °C 35001.1 hPa NE 3.1 km/h 3.1 km/h 52 % 0 mm
15:38 -10.8 °C -16.2 °C 35001.1 hPa ENE 6 km/h 6 km/h 52 % 0 mm
15:43 -10.8 °C -16.2 °C 35001.1 hPa NNE 6.8 km/h 6.8 km/h 52 % 0 mm
15:44 -10.8 °C -16.2 °C 35001.1 hPa NNE 6.3 km/h 6.3 km/h 52 % 0 mm
15:49 -10.8 °C -16.2 °C 35001.1 hPa NE 4.2 km/h 4.2 km/h 52 % 0 mm
15:51 -10.8 °C -16.2 °C 35001.1 hPa NE 3.7 km/h   52 % 0 mm
15:56 -10.8 °C -16.2 °C 35001.1 hPa NE 3.7 km/h 3.7 km/h 52 % 0 mm
15:58 -10.8 °C -16.2 °C 35001.1 hPa NE 3.1 km/h   52 % 0 mm
16:03 -10.8 °C -16.1 °C 35001.1 hPa West 3.7 km/h 3.7 km/h 52 % 0 mm
16:06 -10.7 °C -16 °C 35001.1 hPa Calm     52 % 0 mm
16:11 -10.7 °C -16.1 °C 35001.1 hPa ENE 3.1 km/h   52 % 0 mm
16:13 -10.7 °C -16.1 °C 35001.1 hPa ENE 3.1 km/h   52 % 0 mm
16:18 -10.7 °C -16.1 °C 35001.1 hPa Calm     52 % 0 mm
16:19 -10.7 °C -16.1 °C 35001.1 hPa Calm     52 % 0 mm
16:24 -10.7 °C -16.1 °C 35001.1 hPa Calm     52 % 0 mm
16:25 -10.7 °C -16.1 °C 35001.1 hPa Calm     52 % 0 mm
16:28 -10.7 °C -16.1 °C 35001.1 hPa Calm     52 % 0 mm
16:31 -10.8 °C -16.1 °C 35001.1 hPa Calm     52 % 0 mm
16:36 -10.8 °C -16.1 °C 35001.1 hPa Calm     52 % 0 mm
16:37 -10.8 °C -16.1 °C 35001.1 hPa Calm     52 % 0 mm
16:42 -10.9 °C -16.2 °C 35001.1 hPa Calm     52 % 0 mm
16:44 -10.9 °C -16.2 °C 35001.1 hPa Calm     52 % 0 mm
16:48 -10.9 °C -16.3 °C 35001.1 hPa Calm     52 % 0 mm
16:53 -10.9 °C -16.3 °C 35001.1 hPa Calm     52 % 0 mm
16:54 -10.9 °C -16.3 °C 35001.1 hPa NW 3.1 km/h   52 % 0 mm
16:59 -10.9 °C -16.3 °C 35001.1 hPa NW 3.1 km/h 3.1 km/h 52 % 0 mm
17:02 -10.9 °C -16.3 °C 35001.1 hPa Calm     52 % 0 mm
17:07 -10.9 °C -16.3 °C 35001.1 hPa Calm     52 % 0 mm
17:08 -10.9 °C -16.3 °C 35001.1 hPa Calm     52 % 0 mm
17:12 -11 °C -16.3 °C 35001.1 hPa Calm     52 % 0 mm
17:14 -11 °C -16.3 °C 35001.1 hPa Calm     52 % 0 mm
17:19 -11.2 °C -16.5 °C 35001.1 hPa Calm     52 % 0 mm
17:20 -11.2 °C -16.5 °C 35001.1 hPa Calm     52 % 0 mm
17:21 -11.2 °C -16.5 °C 35001.1 hPa Calm     52 % 0 mm
17:25 -11.3 °C -16.6 °C 34967.2 hPa Calm     52 % 0 mm
17:30 -11.4 °C -16.7 °C 34967.2 hPa Calm     52 % 0 mm
17:31 -11.4 °C -16.7 °C 34967.2 hPa Calm     52 % 0 mm
17:32 -11.5 °C -16.8 °C 34967.2 hPa Calm     52 % 0 mm
17:37 -11.6 °C -16.9 °C 34967.2 hPa Calm     52 % 0 mm
17:42 -11.7 °C -17 °C 35001.1 hPa North 3.1 km/h   52 % 0 mm
17:43 -11.7 °C -17 °C 35001.1 hPa North 3.1 km/h   52 % 0 mm
17:48 -11.8 °C -17.1 °C 35001.1 hPa WNW 3.1 km/h 3.1 km/h 52 % 0 mm
17:53 -11.9 °C -17.1 °C 35001.1 hPa WNW 3.1 km/h   52 % 0 mm
17:55 -11.9 °C -17.2 °C 35038.3 hPa WNW 2.3 km/h   52 % 0 mm
18:00 -12 °C -17.3 °C 35038.3 hPa Calm   3.1 km/h 52 % 0 mm
18:05 -12.1 °C -17.3 °C 35038.3 hPa Calm   3.1 km/h 52 % 0 mm
18:08 -12.1 °C -17.3 °C 35038.3 hPa NNE 3.1 km/h 3.1 km/h 52 % 0 mm
18:14 -12.2 °C -17.4 °C 35001.1 hPa Calm   3.1 km/h 52 % 0 mm
18:15 -12.2 °C -17.4 °C 35001.1 hPa Calm   3.1 km/h 52 % 0 mm
18:19 -12.2 °C -17.4 °C 35001.1 hPa Calm   3.7 km/h 52 % 0 mm
18:22 -12.2 °C -17.4 °C 35001.1 hPa Calm     52 % 0 mm
18:25 -12.3 °C -17.5 °C 35001.1 hPa Calm     52 % 0 mm
18:27 -12.3 °C -17.5 °C 35001.1 hPa Calm     52 % 0 mm
18:31 -12.3 °C -17.4 °C 35001.1 hPa Calm     53 % 0 mm
18:36 -12.4 °C -17.4 °C 35001.1 hPa Calm     53 % 0 mm
18:40 -12.6 °C -17.7 °C 35038.3 hPa Calm     53 % 0 mm
18:42 -12.6 °C -17.7 °C 35038.3 hPa SW 3.1 km/h 3.7 km/h 53 % 0 mm
18:45 -14.7 °C -18 °C 35001.1 hPa WSW 2.6 km/h 5.1 km/h 65 % 0 mm
18:47 -12.8 °C -17.9 °C 35038.3 hPa SW 6 km/h 6 km/h 53 % 0 mm
18:49 -12.9 °C -17.9 °C 35038.3 hPa SW 3.7 km/h 3.7 km/h 53 % 0 mm
18:52 -12.9 °C -17.9 °C 35038.3 hPa Calm     53 % 0 mm
18:54 -12.9 °C -17.9 °C 35038.3 hPa SW 2.3 km/h 3.1 km/h 53 % 0 mm
18:55 -14.5 °C -17.9 °C 34967.2 hPa Calm   7.7 km/h 65 % 0 mm
18:59 -12.9 °C -17.9 °C 35038.3 hPa SW 6.3 km/h 6.3 km/h 53 % 0 mm
19:04 -12.9 °C -17.8 °C 35038.3 hPa West 3.1 km/h 3.1 km/h 54 % 0 mm
19:05 -14.5 °C -18 °C 35001.1 hPa North 2.6 km/h 7.7 km/h 64 % 0 mm
19:06 -12.9 °C -17.8 °C 35038.3 hPa West 2.3 km/h   54 % 0 mm
19:11 -13 °C -17.9 °C 35038.3 hPa Calm     54 % 0 mm
19:12 -13 °C -17.9 °C 35038.3 hPa Calm     54 % 0 mm
19:15 -14.5 °C -18 °C 35001.1 hPa NW 2.6 km/h 5.1 km/h 64 % 0 mm
19:17 -13.1 °C -17.9 °C 35038.3 hPa SSW 3.1 km/h   54 % 0 mm
19:18 -13.1 °C -18 °C 35038.3 hPa SSW 6 km/h 6 km/h 54 % 0 mm
19:24 -13.1 °C -17.8 °C 35001.1 hPa SW 5.6 km/h 5.6 km/h 55 % 0 mm
19:25 -13.1 °C -17.8 °C 35001.1 hPa SW 6 km/h 6 km/h 55 % 0 mm
19:30 -13.2 °C -17.9 °C 35001.1 hPa SW 3.1 km/h 3.7 km/h 55 % 0 mm
19:31 -13.2 °C -17.9 °C 35001.1 hPa SW 3.1 km/h   55 % 0 mm
19:35 -13.2 °C -17.9 °C 35001.1 hPa Calm     55 % 0 mm
19:40 -13.2 °C -17.9 °C 35001.1 hPa Calm     55 % 0 mm
19:45 -13.3 °C -17.9 °C 35001.1 hPa Calm     56 % 0 mm
19:46 -13.3 °C -17.9 °C 35001.1 hPa Calm     56 % 0 mm
19:51 -13.3 °C -17.9 °C 35001.1 hPa WSW 3.1 km/h 3.1 km/h 56 % 0 mm
19:52 -13.3 °C -17.9 °C 35001.1 hPa WSW 3.1 km/h   56 % 0 mm
19:55 -14.4 °C -17.9 °C 34967.2 hPa NW 2.6 km/h 2.6 km/h 64 % 0 mm
19:56 -13.4 °C -17.8 °C 35001.1 hPa Calm     57 % 0 mm
19:57 -13.4 °C -17.8 °C 35001.1 hPa Calm     57 % 0 mm
20:02 -13.4 °C -17.9 °C 35001.1 hPa Calm     57 % 0 mm
20:05 -14.4 °C -17.9 °C 34967.2 hPa NW 2.6 km/h 2.6 km/h 64 % 0 mm
20:07 -13.4 °C -17.9 °C 35001.1 hPa WNW 3.1 km/h 3.1 km/h 57 % 0 mm
20:12 -13.4 °C -17.7 °C 35001.1 hPa West 5.6 km/h   58 % 0 mm
20:15 -13.4 °C -17.7 °C 35001.1 hPa WSW 6 km/h 6 km/h 58 % 0 mm
20:17 -13.4 °C -17.7 °C 35001.1 hPa WSW 6 km/h 6 km/h 58 % 0 mm
20:22 -13.5 °C -17.8 °C 35001.1 hPa SW 3.1 km/h   58 % 0 mm
20:24 -13.5 °C -17.8 °C 35001.1 hPa Calm     58 % 0 mm
20:25 -13.5 °C -17.8 °C 35001.1 hPa Calm     58 % 0 mm
20:30 -13.6 °C -17.9 °C 35001.1 hPa SW 6 km/h 6 km/h 58 % 0 mm
20:31 -13.6 °C -17.9 °C 35001.1 hPa WSW 6.3 km/h 6.3 km/h 58 % 0 mm
20:35 -14.4 °C -17.9 °C 34967.2 hPa NNW 2.6 km/h 5.1 km/h 64 % 0 mm
20:36 -13.6 °C -17.7 °C 35001.1 hPa West 8 km/h 8 km/h 59 % 0 mm
20:41 -13.5 °C -17.7 °C 35001.1 hPa WSW 3.7 km/h   59 % 0 mm
20:42 -13.5 °C -17.7 °C 35001.1 hPa SW 5.1 km/h 5.1 km/h 59 % 0 mm
20:43 -13.5 °C -17.7 °C 35001.1 hPa SW 4.2 km/h 4.2 km/h 59 % 0 mm
20:45 -14.4 °C -17.9 °C 34967.2 hPa Calm   5.1 km/h 64 % 0 mm
20:47 -13.6 °C -17.8 °C 35001.1 hPa WSW 6 km/h 6 km/h 59 % 0 mm
20:52 -13.7 °C -17.8 °C 35001.1 hPa WNW 7.6 km/h 7.6 km/h 59 % 0 mm
20:53 -13.7 °C -17.8 °C 35001.1 hPa WNW 4.2 km/h 4.2 km/h 59 % 0 mm
20:55 -14.4 °C -17.9 °C 34946.9 hPa NNE 5.1 km/h 5.1 km/h 64 % 0 mm
20:58 -13.7 °C -17.7 °C 35001.1 hPa Calm     60 % 0 mm
20:59 -13.6 °C -17.7 °C 35001.1 hPa Calm     60 % 0 mm
21:03 -13.7 °C -17.7 °C 35001.1 hPa WSW 5.6 km/h   60 % 0 mm
21:05 -14.3 °C -17.9 °C 34946.9 hPa NNE 2.6 km/h 7.7 km/h 63 % 0 mm
21:08 -13.7 °C -17.7 °C 35001.1 hPa WSW 3.1 km/h 3.1 km/h 60 % 0 mm
21:09 -13.7 °C -17.7 °C 35001.1 hPa WSW 3.1 km/h   60 % 0 mm
21:10 -13.7 °C -17.7 °C 35001.1 hPa Calm     60 % 0 mm
21:14 -13.7 °C -17.7 °C 35001.1 hPa West 3.7 km/h 3.7 km/h 60 % 0 mm
21:15 -14.3 °C -17.9 °C 34946.9 hPa NNE 7.7 km/h 15.6 km/h 63 % 0 mm
21:19 -13.7 °C -17.7 °C 35001.1 hPa WSW 6 km/h 6 km/h 60 % 0 mm
21:20 -13.7 °C -17.7 °C 35001.1 hPa WSW 6 km/h 6 km/h 60 % 0 mm
21:24 -13.7 °C -17.7 °C 35001.1 hPa West 6 km/h 6 km/h 60 % 0 mm
21:25 -14.3 °C -17.9 °C 34946.9 hPa NE 2.6 km/h 10.3 km/h 63 % 0 mm
21:26 -13.7 °C -17.7 °C 35001.1 hPa West 5.1 km/h   60 % 0 mm
21:31 -13.7 °C -17.6 °C 35001.1 hPa West 3.1 km/h   61 % 0 mm
21:32 -13.7 °C -17.7 °C 35001.1 hPa Calm     60 % 0 mm
21:35 -14.3 °C -17.9 °C 34946.9 hPa ENE 5.1 km/h 7.7 km/h 63 % 0 mm
21:37 -13.8 °C -17.8 °C 35001.1 hPa WSW 6 km/h 6 km/h 60 % 0 mm
21:38 -13.8 °C -17.8 °C 35001.1 hPa WSW 6.3 km/h 6.3 km/h 60 % 0 mm
21:43 -13.9 °C -17.8 °C 35001.1 hPa SW 6.3 km/h 6.3 km/h 61 % 0 mm
21:45 -14 °C -17.9 °C 35001.1 hPa SW 6.8 km/h 6.8 km/h 61 % 0 mm
21:50 -14.2 °C -18.1 °C 35001.1 hPa SW 6 km/h 6 km/h 61 % 0 mm
21:51 -14.2 °C -18.1 °C 35001.1 hPa WSW 6.8 km/h 6.8 km/h 61 % 0 mm
21:55 -14.4 °C -17.9 °C 34899.5 hPa Calm   5.1 km/h 64 % 0 mm
21:56 -14.2 °C -18.1 °C 35001.1 hPa WSW 6 km/h 6 km/h 61 % 0 mm
22:01 -14.2 °C -18.1 °C 35001.1 hPa SW 3.7 km/h 3.7 km/h 61 % 0 mm
22:03 -14.3 °C -18.2 °C 35001.1 hPa SW 4.2 km/h 4.2 km/h 61 % 0 mm
22:05 -14.4 °C -17.9 °C 34899.5 hPa NE 7.7 km/h 7.7 km/h 64 % 0 mm
22:08 -14.3 °C -18.1 °C 35001.1 hPa SW 6 km/h 6 km/h 62 % 0 mm
22:10 -14.3 °C -18.1 °C 35001.1 hPa SW 6 km/h 6 km/h 62 % 0 mm
22:13 -14.3 °C -18.1 °C 35001.1 hPa SW 6 km/h 6 km/h 62 % 0 mm
22:15 -14.4 °C -17.9 °C 34899.5 hPa NNE 5.1 km/h 10.3 km/h 64 % 0 mm
22:18 -14.4 °C -18.2 °C 35001.1 hPa WSW 7.6 km/h 7.6 km/h 62 % 0 mm
22:19 -14.4 °C -18.2 °C 35001.1 hPa SW 6.3 km/h 6.3 km/h 62 % 0 mm
22:24 -14.4 °C -18.2 °C 35001.1 hPa WSW 6 km/h 6 km/h 62 % 0 mm
22:25 -14.4 °C -18.2 °C 35001.1 hPa WSW 6 km/h 6 km/h 62 % 0 mm
22:30 -14.5 °C -18.2 °C 35001.1 hPa SW 6 km/h 6 km/h 62 % 0 mm
22:33 -14.5 °C -18.1 °C 35001.1 hPa SW 3.1 km/h   63 % 0 mm
22:35 -14.4 °C -17.9 °C 34946.9 hPa NNE 2.6 km/h 10.3 km/h 64 % 0 mm
22:36 -14.5 °C -18.1 °C 35001.1 hPa West 6 km/h 6 km/h 63 % 0 mm
22:38 -14.5 °C -18.2 °C 35001.1 hPa WSW 6 km/h 6 km/h 62 % 0 mm
22:43 -14.5 °C -18.1 °C 35001.1 hPa WSW 6 km/h 6 km/h 63 % 0 mm
22:48 -14.5 °C -18.1 °C 35001.1 hPa Calm     63 % 0 mm
22:51 -14.6 °C -18.2 °C 35001.1 hPa Calm     63 % 0 mm
22:56 -14.5 °C -18.1 °C 35001.1 hPa WSW 3.7 km/h   63 % 0 mm
22:57 -14.5 °C -18.1 °C 35001.1 hPa WSW 3.1 km/h 3.1 km/h 63 % 0 mm
23:02 -14.4 °C -18.1 °C 35001.1 hPa Calm     63 % 0 mm
23:03 -14.4 °C -17.9 °C 35001.1 hPa Calm     64 % 0 mm
23:05 -14.6 °C -18.1 °C 34946.9 hPa NE 5.1 km/h 10.3 km/h 64 % 0 mm
23:08 -14.5 °C -18.1 °C 35001.1 hPa WSW 6 km/h 6 km/h 63 % 0 mm
23:11 -14.6 °C -18.2 °C 35001.1 hPa WSW 5.1 km/h 5.1 km/h 63 % 0 mm
23:13 -14.4 °C -18.1 °C 35001.1 hPa WSW 6 km/h 6 km/h 63 % 0 mm
23:15 -14.6 °C -18.1 °C 34946.9 hPa NNE 5.1 km/h 7.7 km/h 64 % 0 mm
23:18 -14.4 °C -17.9 °C 35001.1 hPa WSW 3.7 km/h 3.7 km/h 64 % 0 mm
23:19 -14.4 °C -17.9 °C 35001.1 hPa WSW 3.7 km/h 3.7 km/h 64 % 0 mm
23:24 -14.5 °C -18 °C 35001.1 hPa WSW 6 km/h 6 km/h 64 % 0 mm
23:25 -14.7 °C -18.2 °C 34899.5 hPa North 5.1 km/h 7.7 km/h 64 % 0 mm
23:29 -14.5 °C -18 °C 34967.2 hPa WSW 6 km/h 6 km/h 64 % 0 mm
23:32 -14.5 °C -18.1 °C 34967.2 hPa West 6 km/h 6 km/h 63 % 0 mm
23:35 -14.4 °C -18.1 °C 34967.2 hPa WSW 6 km/h 6.3 km/h 63 % 0 mm
23:39 -14.4 °C -18.1 °C 34967.2 hPa WNW 3.1 km/h 3.1 km/h 63 % 0 mm
23:41 -14.4 °C -17.9 °C 35001.1 hPa NW 3.1 km/h   64 % 0 mm
23:45 -14.4 °C -17.9 °C 35001.1 hPa NE 6.3 km/h 6.3 km/h 64 % 0 mm
23:46 -14.4 °C -17.9 °C 35001.1 hPa NNE 6 km/h 6 km/h 64 % 0 mm
23:51 -14.4 °C -17.9 °C 35001.1 hPa WNW 3.1 km/h 3.1 km/h 64 % 0 mm
23:52 -14.4 °C -17.9 °C 35001.1 hPa WNW 3.1 km/h 3.1 km/h 64 % 0 mm
23:55 -14.9 °C -18.4 °C 34899.5 hPa Calm   5.1 km/h 64 % 0 mm
23:57 -14.4 °C -17.9 °C 35001.1 hPa Calm     64 % 0 mm
23:58 -14.5 °C -18 °C 35001.1 hPa West 5.1 km/h   64 % 0 mm
Meteo Sesrovires
Elogis d' Weather Underground - 2 mb

Guio original per  Jim McMurry - jmcmurry@mwt.net Adaptat per a la plantilla per  Wim van der Kuil - Leuven-Template.eu

Trobareu la nostra informacio del temps tambe a:

Weather Underground

AWEKAS